Hunter, Texas
Current Conditions -  °F | °C
As of 12:51 AM on Thursday 27 Nov 2014 (Local Time) from KBAZ Reporting Station
Clear Clear  
Wind Chill: 53°   Ceiling: Unl
Heat Index: 53°   Visibility: 10mi
Dew Point: 34°   Wind: 13mph
Humidity: 48%   Direction: 30°NNE
Pressure: 30.34"   Gusts: NA
Location:  29.7667°N, 98.1818°W
Report Text: KBAZ 270651Z AUTO 03011KT 10SM CLR 12/01 A3034 RMK AO2 SLP271 T01170011
Loading
Personal Weather Stations






























Interactive Weather Map New forecast layout! Learn more

10-Day Weather Forecast

Advertisements
Track Severe Weather on mobile